• Join FlightAware (Why Join?)
  • Login
  • US Flag GB Flag 
11:27 EDT


 

Airport Tracker/Info


-or-


 

Live Flight TrackerFlight Track Log ✈ UAL3272 ✈ 18-Apr-2013 ✈ CYYZ - KCLE

Flight Track Log - Related Links

Times and Time Zones

All times are in EDT time to prevent confusion due to time zone crossing. See the UAL3272 flight status page for this flight to view local times or setup timezone preferences in your user account.

Time Position Orientation Groundspeed Altitude Reporting Facility
EDT Latitude Longitude Course Direction KTS MPH feet Rate Location/Type
06:38 43.6833 -79.5333 200° South 160 184 2,400  Level Toronto Center
06:39 43.7167 -79.4667 55° Northeast 240 276 3,900 2,100 Climbing Toronto Center
06:40 43.7000 -79.3833 105° East 280 322 6,600 1,500 Climbing Toronto Center
06:41 43.6333 -79.3333 152° Southeast 260 299 7,000 1,440 Climbing Toronto Center
06:42 43.5833 -79.3500 194° South 240 276 9,500 2,220 Climbing Toronto Center
06:43 42.9631 -79.7602 200° South  Level FlightAware Approximate
06:43 43.5167 -79.4000 209° Southwest 250 288 11,500  Level Toronto Center
06:44 43.4333 -79.4500 204° Southwest 290 334 12,200 1,500 Climbing Toronto Center
06:45 43.3500 -79.5000 204° Southwest 310 357 14,600 1,860 Climbing Toronto Center
06:46 43.2833 -79.5333 200° South 310 357 16,000 1,380 Climbing Toronto Center
06:47 43.1833 -79.5833 200° South 330 380 17,400 960 Climbing Toronto Center
06:48 43.1000 -79.6333 204° Southwest 340 391 18,000 300 Climbing Toronto Center
06:49 43.0167 -79.7000 210° Southwest 370 426 18,000  Level Toronto Center
06:50 42.9000 -79.7667 203° Southwest 380 437 18,000  Level Toronto Center
06:51 42.8167 -79.8167 204° Southwest 380 437 18,000  Level Toronto Center
06:51 42.7892 -79.8533 224° Southwest 382 440 18,000  Level Cleveland Center
06:52 42.6939 -79.9081 203° Southwest 387 445 18,000  Level Cleveland Center
06:53 42.5942 -79.9656 203° Southwest 387 445 18,000  Level Cleveland Center
06:54 42.4819 -80.0314 203° Southwest 395 455 18,000  Level Cleveland Center
06:55 42.3861 -80.0856 203° Southwest 395 455 18,000  Level Cleveland Center
06:56 42.2864 -80.1425 203° Southwest 390 449 18,000  Level Cleveland Center
06:57 42.1992 -80.2133 211° Southwest 382 440 18,000  Level Cleveland Center
06:58 42.1244 -80.3172 226° Southwest 382 440 18,000  Level Cleveland Center
06:59 42.0536 -80.4153 226° Southwest 377 434 18,000  Level Cleveland Center
07:00 41.9808 -80.5189 227° Southwest 377 434 18,000  Level Cleveland Center
07:01 41.9078 -80.6222 226° Southwest 377 434 18,000  Level Cleveland Center
07:02 41.8431 -80.7142 227° Southwest 377 434 18,000 -600 Level Cleveland Center
07:03 41.7722 -80.8114 226° Southwest 372 428 16,800 -1,500 Descending Cleveland Center
07:04 41.7031 -80.9086 226° Southwest 366 421 15,000 -1,920 Descending Cleveland Center
07:05 41.6467 -80.9861 226° Southwest 347 399 13,600 -1,800 Descending Cleveland Center
07:05 41.6361 -81.0000 225° Southwest 357 411 13,200 -1,800 Descending Cleveland Center
07:06 41.5922 -81.0550 223° Southwest 345 397 12,200 -1,800 Descending Cleveland Center
07:06 41.5689 -81.0911 229° Southwest 350 403 11,400 -1,920 Descending Cleveland Center
07:07 41.5519 -81.1714 254° West 337 388 10,100 -1,440 Descending Cleveland Center
07:07 41.5539 -81.2075 274° West 309 356 10,000 -720 Descending Cleveland Center
07:08 41.5533 -81.2825 269° West 248 285 9,400 -1,020 Descending Cleveland Center
07:08 41.5575 -81.3128 280° West 288 331 9,000 -1,500 Descending Cleveland Center
07:09 41.5550 -81.3572 266° West 242 278 8,100 -1,500 Descending Cleveland Center
07:09 41.5506 -81.4017 262° West 255 293 7,500 -1,500 Descending Cleveland Center
07:10 41.5461 -81.4517 263° West 248 285 6,600 -1,620 Descending Cleveland Center
07:10 41.5414 -81.4931 261° West 249 287 5,900 -1,680 Descending Cleveland Center
07:11 41.5392 -81.5264 265° West 241 277 5,300 -1,500 Descending Cleveland Center
07:11 41.5325 -81.5789 260° West 244 281 4,400 -1,320 Descending Cleveland Center
07:12 41.5300 -81.6122 264° West 234 269 4,000 -420 Descending Cleveland Center
07:12 41.5256 -81.6619 263° West 237 273 4,000 -120 Level Cleveland Center
07:13 41.5147 -81.6922 244° Southwest 226 260 3,900 -900 Descending Cleveland Center
07:13 41.4914 -81.7281 229° Southwest 217 250 3,100 -1,140 Descending Cleveland Center
07:14 41.4786 -81.7500 232° Southwest 188 216 2,800 -840 Descending Cleveland Center
07:14 41.4597 -81.7744 224° Southwest 193 222 2,300 -840 Descending Cleveland Center
07:15 41.4469 -81.7964 232° Southwest 106 122 1,800 -720 Descending Cleveland Center
07:16 41.4278 -81.8294 232° Southwest 113 130 1,200 -600 Descending Cleveland Center
07:18 41.4000 -81.8500 252° West  Level FlightAware Approximate